sensor_id;sensor_type;location;lat;lon;timestamp;P1;durP1;ratioP1;P2;durP2;ratioP2
35919;SDS011;36160;53.370;-6.196;2022-11-20T00:01:17;12.45;;;3.92;;
35919;SDS011;36160;53.370;-6.196;2022-11-20T00:03:45;14.25;;;3.53;;
35919;SDS011;36160;53.370;-6.196;2022-11-20T00:06:12;22.38;;;4.00;;
35919;SDS011;36160;53.370;-6.196;2022-11-20T00:08:40;15.88;;;4.93;;
35919;SDS011;36160;53.370;-6.196;2022-11-20T00:11:07;17.02;;;5.45;;
35919;SDS011;36160;53.370;-6.196;2022-11-20T00:13:34;30.38;;;5.45;;
35919;SDS011;36160;53.370;-6.196;2022-11-20T00:16:01;13.77;;;4.03;;
35919;SDS011;36160;53.370;-6.196;2022-11-20T00:18:30;23.38;;;6.00;;
35919;SDS011;36160;53.370;-6.196;2022-11-20T00:21:01;16.98;;;3.65;;
35919;SDS011;36160;53.370;-6.196;2022-11-20T00:23:51;25.40;;;4.47;;
35919;SDS011;36160;53.370;-6.196;2022-11-20T00:26:19;17.05;;;4.55;;
35919;SDS011;36160;53.370;-6.196;2022-11-20T00:29:03;26.75;;;4.85;;
35919;SDS011;36160;53.370;-6.196;2022-11-20T00:31:30;21.50;;;3.97;;
35919;SDS011;36160;53.370;-6.196;2022-11-20T00:33:57;22.42;;;3.28;;
35919;SDS011;36160;53.370;-6.196;2022-11-20T00:36:24;25.85;;;4.93;;
35919;SDS011;36160;53.370;-6.196;2022-11-20T00:38:52;21.65;;;5.45;;
35919;SDS011;36160;53.370;-6.196;2022-11-20T00:41:19;20.05;;;4.50;;
35919;SDS011;36160;53.370;-6.196;2022-11-20T00:43:45;21.23;;;4.30;;
35919;SDS011;36160;53.370;-6.196;2022-11-20T00:46:18;22.83;;;5.13;;
35919;SDS011;36160;53.370;-6.196;2022-11-20T00:48:45;22.95;;;6.72;;
35919;SDS011;36160;53.370;-6.196;2022-11-20T00:51:12;19.75;;;4.53;;
35919;SDS011;36160;53.370;-6.196;2022-11-20T00:53:39;31.65;;;4.95;;
35919;SDS011;36160;53.370;-6.196;2022-11-20T00:56:06;34.05;;;5.13;;
35919;SDS011;36160;53.370;-6.196;2022-11-20T00:58:35;29.73;;;5.60;;
35919;SDS011;36160;53.370;-6.196;2022-11-20T01:01:07;22.15;;;4.03;;
35919;SDS011;36160;53.370;-6.196;2022-11-20T01:03:34;28.30;;;6.68;;
35919;SDS011;36160;53.370;-6.196;2022-11-20T01:08:59;24.52;;;6.60;;
35919;SDS011;36160;53.370;-6.196;2022-11-20T01:11:28;33.78;;;6.93;;
35919;SDS011;36160;53.370;-6.196;2022-11-20T01:13:58;23.38;;;5.60;;
35919;SDS011;36160;53.370;-6.196;2022-11-20T01:16:28;44.95;;;7.82;;
35919;SDS011;36160;53.370;-6.196;2022-11-20T01:18:57;24.10;;;5.97;;
35919;SDS011;36160;53.370;-6.196;2022-11-20T01:21:26;35.30;;;6.82;;
35919;SDS011;36160;53.370;-6.196;2022-11-20T01:23:57;33.58;;;5.05;;
35919;SDS011;36160;53.370;-6.196;2022-11-20T01:26:24;33.72;;;5.45;;
35919;SDS011;36160;53.370;-6.196;2022-11-20T01:28:53;30.30;;;5.13;;
35919;SDS011;36160;53.370;-6.196;2022-11-20T01:31:20;27.58;;;4.45;;
35919;SDS011;36160;53.370;-6.196;2022-11-20T01:33:49;32.95;;;6.35;;
35919;SDS011;36160;53.370;-6.196;2022-11-20T01:36:17;28.80;;;6.35;;
35919;SDS011;36160;53.370;-6.196;2022-11-20T01:38:44;37.00;;;5.70;;
35919;SDS011;36160;53.370;-6.196;2022-11-20T01:41:10;37.45;;;4.53;;
35919;SDS011;36160;53.370;-6.196;2022-11-20T01:43:58;30.88;;;5.00;;
35919;SDS011;36160;53.370;-6.196;2022-11-20T01:46:24;27.48;;;5.70;;
35919;SDS011;36160;53.370;-6.196;2022-11-20T01:54:00;36.33;;;6.55;;
35919;SDS011;36160;53.370;-6.196;2022-11-20T01:56:31;28.23;;;6.53;;
35919;SDS011;36160;53.370;-6.196;2022-11-20T01:58:59;37.63;;;5.70;;
35919;SDS011;36160;53.370;-6.196;2022-11-20T02:01:26;34.78;;;5.47;;
35919;SDS011;36160;53.370;-6.196;2022-11-20T02:03:52;26.42;;;5.38;;
35919;SDS011;36160;53.370;-6.196;2022-11-20T02:08:50;38.22;;;6.78;;
35919;SDS011;36160;53.370;-6.196;2022-11-20T02:11:17;31.58;;;4.70;;
35919;SDS011;36160;53.370;-6.196;2022-11-20T02:13:43;37.03;;;7.00;;
35919;SDS011;36160;53.370;-6.196;2022-11-20T02:16:18;29.05;;;5.22;;
35919;SDS011;36160;53.370;-6.196;2022-11-20T02:18:54;24.75;;;4.45;;
35919;SDS011;36160;53.370;-6.196;2022-11-20T02:21:38;31.30;;;6.03;;
35919;SDS011;36160;53.370;-6.196;2022-11-20T02:24:18;41.13;;;5.93;;
35919;SDS011;36160;53.370;-6.196;2022-11-20T02:26:49;37.40;;;6.68;;
35919;SDS011;36160;53.370;-6.196;2022-11-20T02:31:48;36.90;;;6.18;;
35919;SDS011;36160;53.370;-6.196;2022-11-20T02:34:13;43.10;;;5.20;;
35919;SDS011;36160;53.370;-6.196;2022-11-20T02:36:39;49.50;;;6.90;;
35919;SDS011;36160;53.370;-6.196;2022-11-20T02:39:06;25.90;;;5.70;;
35919;SDS011;36160;53.370;-6.196;2022-11-20T02:41:35;34.97;;;4.75;;
35919;SDS011;36160;53.370;-6.196;2022-11-20T02:44:02;37.70;;;6.45;;
35919;SDS011;36160;53.370;-6.196;2022-11-20T02:46:29;26.30;;;5.35;;
35919;SDS011;36160;53.370;-6.196;2022-11-20T02:48:55;38.20;;;6.22;;
35919;SDS011;36160;53.370;-6.196;2022-11-20T02:51:21;28.08;;;4.75;;
35919;SDS011;36160;53.370;-6.196;2022-11-20T02:53:47;48.15;;;5.57;;
35919;SDS011;36160;53.370;-6.196;2022-11-20T02:56:13;25.55;;;6.35;;
35919;SDS011;36160;53.370;-6.196;2022-11-20T02:58:39;28.95;;;5.50;;
35919;SDS011;36160;53.370;-6.196;2022-11-20T03:01:04;25.23;;;4.28;;
35919;SDS011;36160;53.370;-6.196;2022-11-20T03:03:30;28.67;;;4.50;;
35919;SDS011;36160;53.370;-6.196;2022-11-20T03:05:58;20.42;;;3.40;;
35919;SDS011;36160;53.370;-6.196;2022-11-20T03:08:24;26.33;;;6.00;;
35919;SDS011;36160;53.370;-6.196;2022-11-20T03:10:50;28.08;;;5.25;;
35919;SDS011;36160;53.370;-6.196;2022-11-20T03:13:16;38.70;;;5.57;;
35919;SDS011;36160;53.370;-6.196;2022-11-20T03:15:42;17.90;;;3.65;;
35919;SDS011;36160;53.370;-6.196;2022-11-20T03:18:08;32.50;;;5.18;;
35919;SDS011;36160;53.370;-6.196;2022-11-20T03:20:34;33.85;;;6.30;;
35919;SDS011;36160;53.370;-6.196;2022-11-20T03:22:59;25.13;;;5.03;;
35919;SDS011;36160;53.370;-6.196;2022-11-20T03:25:25;26.08;;;5.28;;
35919;SDS011;36160;53.370;-6.196;2022-11-20T03:27:51;24.58;;;3.58;;
35919;SDS011;36160;53.370;-6.196;2022-11-20T03:30:16;36.35;;;4.90;;
35919;SDS011;36160;53.370;-6.196;2022-11-20T03:32:42;22.90;;;4.38;;
35919;SDS011;36160;53.370;-6.196;2022-11-20T03:35:08;21.52;;;5.65;;
35919;SDS011;36160;53.370;-6.196;2022-11-20T03:37:34;17.33;;;3.33;;
35919;SDS011;36160;53.370;-6.196;2022-11-20T03:40:00;19.00;;;5.65;;
35919;SDS011;36160;53.370;-6.196;2022-11-20T03:42:25;20.10;;;4.50;;
35919;SDS011;36160;53.370;-6.196;2022-11-20T03:45:09;32.05;;;6.00;;
35919;SDS011;36160;53.370;-6.196;2022-11-20T03:47:35;24.35;;;3.80;;
35919;SDS011;36160;53.370;-6.196;2022-11-20T03:50:01;18.67;;;3.92;;
35919;SDS011;36160;53.370;-6.196;2022-11-20T03:52:27;29.10;;;4.97;;
35919;SDS011;36160;53.370;-6.196;2022-11-20T03:54:53;15.80;;;3.28;;
35919;SDS011;36160;53.370;-6.196;2022-11-20T03:57:18;22.92;;;4.95;;
35919;SDS011;36160;53.370;-6.196;2022-11-20T03:59:46;28.95;;;3.95;;
35919;SDS011;36160;53.370;-6.196;2022-11-20T04:02:11;15.40;;;3.28;;
35919;SDS011;36160;53.370;-6.196;2022-11-20T04:04:37;21.58;;;4.18;;
35919;SDS011;36160;53.370;-6.196;2022-11-20T04:07:02;16.23;;;3.35;;
35919;SDS011;36160;53.370;-6.196;2022-11-20T04:09:28;11.48;;;2.85;;
35919;SDS011;36160;53.370;-6.196;2022-11-20T04:11:54;19.38;;;3.40;;
35919;SDS011;36160;53.370;-6.196;2022-11-20T04:14:19;12.85;;;2.67;;
35919;SDS011;36160;53.370;-6.196;2022-11-20T04:16:45;22.90;;;3.35;;
35919;SDS011;36160;53.370;-6.196;2022-11-20T04:19:12;27.60;;;3.40;;
35919;SDS011;36160;53.370;-6.196;2022-11-20T04:21:40;16.95;;;3.15;;
35919;SDS011;36160;53.370;-6.196;2022-11-20T04:24:07;17.92;;;3.85;;
35919;SDS011;36160;53.370;-6.196;2022-11-20T04:26:32;16.48;;;3.17;;
35919;SDS011;36160;53.370;-6.196;2022-11-20T04:28:59;23.52;;;2.85;;
35919;SDS011;36160;53.370;-6.196;2022-11-20T04:31:28;22.02;;;4.22;;
35919;SDS011;36160;53.370;-6.196;2022-11-20T04:33:55;21.90;;;3.22;;
35919;SDS011;36160;53.370;-6.196;2022-11-20T04:36:24;20.20;;;3.58;;
35919;SDS011;36160;53.370;-6.196;2022-11-20T04:38:55;22.60;;;3.30;;
35919;SDS011;36160;53.370;-6.196;2022-11-20T04:41:22;24.52;;;3.25;;
35919;SDS011;36160;53.370;-6.196;2022-11-20T04:43:54;22.70;;;4.40;;
35919;SDS011;36160;53.370;-6.196;2022-11-20T04:46:29;18.77;;;3.92;;
35919;SDS011;36160;53.370;-6.196;2022-11-20T04:48:59;25.27;;;3.72;;
35919;SDS011;36160;53.370;-6.196;2022-11-20T04:51:25;21.75;;;3.08;;
35919;SDS011;36160;53.370;-6.196;2022-11-20T04:53:51;25.85;;;3.88;;
35919;SDS011;36160;53.370;-6.196;2022-11-20T04:56:16;19.35;;;4.30;;
35919;SDS011;36160;53.370;-6.196;2022-11-20T04:58:42;16.67;;;3.30;;
35919;SDS011;36160;53.370;-6.196;2022-11-20T05:01:12;29.73;;;3.83;;
35919;SDS011;36160;53.370;-6.196;2022-11-20T05:03:42;24.02;;;3.67;;
35919;SDS011;36160;53.370;-6.196;2022-11-20T05:06:09;25.13;;;5.18;;
35919;SDS011;36160;53.370;-6.196;2022-11-20T05:08:36;27.42;;;4.85;;
35919;SDS011;36160;53.370;-6.196;2022-11-20T05:11:06;35.45;;;6.47;;
35919;SDS011;36160;53.370;-6.196;2022-11-20T05:13:37;29.35;;;4.10;;
35919;SDS011;36160;53.370;-6.196;2022-11-20T05:16:07;24.00;;;3.55;;
35919;SDS011;36160;53.370;-6.196;2022-11-20T05:18:34;34.72;;;5.40;;
35919;SDS011;36160;53.370;-6.196;2022-11-20T05:21:01;20.75;;;4.10;;
35919;SDS011;36160;53.370;-6.196;2022-11-20T05:23:27;31.70;;;3.60;;
35919;SDS011;36160;53.370;-6.196;2022-11-20T05:25:54;18.90;;;4.13;;
35919;SDS011;36160;53.370;-6.196;2022-11-20T05:28:20;31.45;;;3.83;;
35919;SDS011;36160;53.370;-6.196;2022-11-20T05:30:47;25.25;;;3.88;;
35919;SDS011;36160;53.370;-6.196;2022-11-20T05:33:12;28.92;;;5.45;;
35919;SDS011;36160;53.370;-6.196;2022-11-20T05:35:38;29.88;;;5.60;;
35919;SDS011;36160;53.370;-6.196;2022-11-20T05:38:04;27.70;;;4.25;;
35919;SDS011;36160;53.370;-6.196;2022-11-20T05:40:30;24.60;;;3.80;;
35919;SDS011;36160;53.370;-6.196;2022-11-20T05:42:55;22.88;;;4.07;;
35919;SDS011;36160;53.370;-6.196;2022-11-20T05:45:21;18.10;;;4.60;;
35919;SDS011;36160;53.370;-6.196;2022-11-20T05:47:47;20.23;;;3.17;;
35919;SDS011;36160;53.370;-6.196;2022-11-20T05:50:13;24.95;;;6.80;;
35919;SDS011;36160;53.370;-6.196;2022-11-20T05:52:39;24.95;;;6.80;;
35919;SDS011;36160;53.370;-6.196;2022-11-20T05:55:06;19.02;;;3.58;;
35919;SDS011;36160;53.370;-6.196;2022-11-20T05:57:32;28.08;;;4.88;;
35919;SDS011;36160;53.370;-6.196;2022-11-20T05:59:57;20.70;;;4.47;;
35919;SDS011;36160;53.370;-6.196;2022-11-20T06:02:23;15.25;;;4.00;;
35919;SDS011;36160;53.370;-6.196;2022-11-20T06:04:49;25.75;;;3.28;;
35919;SDS011;36160;53.370;-6.196;2022-11-20T06:07:14;19.38;;;3.45;;
35919;SDS011;36160;53.370;-6.196;2022-11-20T06:09:40;21.45;;;4.50;;
35919;SDS011;36160;53.370;-6.196;2022-11-20T06:12:06;20.10;;;3.08;;
35919;SDS011;36160;53.370;-6.196;2022-11-20T06:14:32;17.17;;;3.10;;
35919;SDS011;36160;53.370;-6.196;2022-11-20T06:16:58;21.05;;;4.72;;
35919;SDS011;36160;53.370;-6.196;2022-11-20T06:19:24;27.23;;;4.75;;
35919;SDS011;36160;53.370;-6.196;2022-11-20T06:21:50;19.92;;;4.10;;
35919;SDS011;36160;53.370;-6.196;2022-11-20T06:24:16;13.77;;;3.40;;
35919;SDS011;36160;53.370;-6.196;2022-11-20T06:26:42;19.77;;;3.67;;
35919;SDS011;36160;53.370;-6.196;2022-11-20T06:29:08;19.95;;;3.85;;
35919;SDS011;36160;53.370;-6.196;2022-11-20T06:31:34;18.58;;;3.63;;
35919;SDS011;36160;53.370;-6.196;2022-11-20T06:34:03;18.77;;;3.47;;
35919;SDS011;36160;53.370;-6.196;2022-11-20T06:36:31;12.75;;;2.83;;
35919;SDS011;36160;53.370;-6.196;2022-11-20T06:38:57;19.02;;;3.22;;
35919;SDS011;36160;53.370;-6.196;2022-11-20T06:41:24;16.77;;;4.55;;
35919;SDS011;36160;53.370;-6.196;2022-11-20T06:43:50;23.90;;;2.90;;
35919;SDS011;36160;53.370;-6.196;2022-11-20T06:46:16;16.10;;;2.88;;
35919;SDS011;36160;53.370;-6.196;2022-11-20T06:48:44;22.02;;;4.25;;
35919;SDS011;36160;53.370;-6.196;2022-11-20T06:51:10;14.85;;;2.58;;
35919;SDS011;36160;53.370;-6.196;2022-11-20T06:53:36;12.45;;;2.90;;
35919;SDS011;36160;53.370;-6.196;2022-11-20T06:56:03;19.90;;;2.77;;
35919;SDS011;36160;53.370;-6.196;2022-11-20T06:58:30;16.05;;;2.75;;
35919;SDS011;36160;53.370;-6.196;2022-11-20T07:01:00;20.33;;;4.13;;
35919;SDS011;36160;53.370;-6.196;2022-11-20T07:03:29;12.30;;;2.70;;
35919;SDS011;36160;53.370;-6.196;2022-11-20T07:05:55;21.88;;;3.08;;
35919;SDS011;36160;53.370;-6.196;2022-11-20T07:08:22;22.58;;;4.18;;
35919;SDS011;36160;53.370;-6.196;2022-11-20T07:10:48;18.17;;;4.53;;
35919;SDS011;36160;53.370;-6.196;2022-11-20T07:13:13;11.32;;;3.88;;
35919;SDS011;36160;53.370;-6.196;2022-11-20T07:15:39;10.73;;;2.70;;
35919;SDS011;36160;53.370;-6.196;2022-11-20T07:18:05;21.23;;;3.22;;
35919;SDS011;36160;53.370;-6.196;2022-11-20T07:20:30;21.52;;;3.65;;
35919;SDS011;36160;53.370;-6.196;2022-11-20T07:22:57;15.57;;;3.25;;
35919;SDS011;36160;53.370;-6.196;2022-11-20T07:25:24;19.42;;;3.00;;
35919;SDS011;36160;53.370;-6.196;2022-11-20T07:27:51;23.73;;;3.97;;
35919;SDS011;36160;53.370;-6.196;2022-11-20T07:30:17;17.20;;;3.33;;
35919;SDS011;36160;53.370;-6.196;2022-11-20T07:32:46;36.10;;;3.22;;
35919;SDS011;36160;53.370;-6.196;2022-11-20T07:35:15;14.52;;;3.95;;
35919;SDS011;36160;53.370;-6.196;2022-11-20T07:37:41;21.98;;;3.55;;
35919;SDS011;36160;53.370;-6.196;2022-11-20T07:40:07;18.30;;;3.08;;
35919;SDS011;36160;53.370;-6.196;2022-11-20T07:42:33;29.15;;;4.57;;
35919;SDS011;36160;53.370;-6.196;2022-11-20T07:44:59;24.60;;;4.47;;
35919;SDS011;36160;53.370;-6.196;2022-11-20T07:47:24;21.30;;;3.85;;
35919;SDS011;36160;53.370;-6.196;2022-11-20T07:49:50;24.50;;;4.15;;
35919;SDS011;36160;53.370;-6.196;2022-11-20T07:52:16;34.45;;;5.20;;
35919;SDS011;36160;53.370;-6.196;2022-11-20T07:54:41;28.30;;;5.15;;
35919;SDS011;36160;53.370;-6.196;2022-11-20T07:57:07;26.92;;;4.47;;
35919;SDS011;36160;53.370;-6.196;2022-11-20T07:59:33;29.08;;;5.28;;
35919;SDS011;36160;53.370;-6.196;2022-11-20T08:01:58;25.63;;;4.40;;
35919;SDS011;36160;53.370;-6.196;2022-11-20T08:04:24;14.20;;;3.28;;
35919;SDS011;36160;53.370;-6.196;2022-11-20T08:06:51;14.25;;;2.83;;
35919;SDS011;36160;53.370;-6.196;2022-11-20T08:09:17;20.80;;;4.85;;
35919;SDS011;36160;53.370;-6.196;2022-11-20T08:11:43;24.42;;;3.80;;
35919;SDS011;36160;53.370;-6.196;2022-11-20T08:14:27;25.48;;;5.40;;
35919;SDS011;36160;53.370;-6.196;2022-11-20T08:16:53;22.70;;;4.10;;
35919;SDS011;36160;53.370;-6.196;2022-11-20T08:19:19;23.55;;;5.55;;
35919;SDS011;36160;53.370;-6.196;2022-11-20T08:21:44;19.40;;;4.82;;
35919;SDS011;36160;53.370;-6.196;2022-11-20T08:24:10;16.85;;;4.05;;
35919;SDS011;36160;53.370;-6.196;2022-11-20T08:26:37;20.98;;;4.30;;
35919;SDS011;36160;53.370;-6.196;2022-11-20T08:29:03;22.17;;;3.15;;
35919;SDS011;36160;53.370;-6.196;2022-11-20T08:31:30;23.25;;;4.05;;
35919;SDS011;36160;53.370;-6.196;2022-11-20T08:33:56;27.40;;;3.72;;
35919;SDS011;36160;53.370;-6.196;2022-11-20T08:36:23;26.77;;;3.58;;
35919;SDS011;36160;53.370;-6.196;2022-11-20T08:38:50;22.65;;;4.15;;
35919;SDS011;36160;53.370;-6.196;2022-11-20T08:41:16;23.10;;;4.10;;
35919;SDS011;36160;53.370;-6.196;2022-11-20T08:43:49;25.17;;;4.38;;
35919;SDS011;36160;53.370;-6.196;2022-11-20T08:46:20;25.10;;;3.92;;
35919;SDS011;36160;53.370;-6.196;2022-11-20T08:48:47;27.58;;;4.97;;
35919;SDS011;36160;53.370;-6.196;2022-11-20T08:51:13;23.75;;;4.15;;
35919;SDS011;36160;53.370;-6.196;2022-11-20T08:53:39;16.70;;;3.55;;
35919;SDS011;36160;53.370;-6.196;2022-11-20T08:56:05;17.75;;;3.72;;
35919;SDS011;36160;53.370;-6.196;2022-11-20T08:58:31;31.02;;;6.32;;
35919;SDS011;36160;53.370;-6.196;2022-11-20T09:00:57;19.15;;;4.45;;
35919;SDS011;36160;53.370;-6.196;2022-11-20T09:03:22;15.52;;;3.20;;
35919;SDS011;36160;53.370;-6.196;2022-11-20T09:05:48;15.27;;;4.68;;
35919;SDS011;36160;53.370;-6.196;2022-11-20T09:08:14;14.65;;;3.35;;
35919;SDS011;36160;53.370;-6.196;2022-11-20T09:10:40;18.73;;;4.05;;
35919;SDS011;36160;53.370;-6.196;2022-11-20T09:13:06;18.05;;;3.65;;
35919;SDS011;36160;53.370;-6.196;2022-11-20T09:15:31;18.35;;;4.85;;
35919;SDS011;36160;53.370;-6.196;2022-11-20T09:17:59;14.48;;;3.10;;
35919;SDS011;36160;53.370;-6.196;2022-11-20T09:20:27;13.30;;;4.05;;
35919;SDS011;36160;53.370;-6.196;2022-11-20T09:22:54;8.82;;;2.85;;
35919;SDS011;36160;53.370;-6.196;2022-11-20T09:25:21;16.65;;;3.78;;
35919;SDS011;36160;53.370;-6.196;2022-11-20T09:27:46;15.27;;;3.05;;
35919;SDS011;36160;53.370;-6.196;2022-11-20T09:30:15;10.20;;;2.40;;
35919;SDS011;36160;53.370;-6.196;2022-11-20T09:32:41;18.27;;;2.97;;
35919;SDS011;36160;53.370;-6.196;2022-11-20T09:35:08;12.70;;;3.03;;
35919;SDS011;36160;53.370;-6.196;2022-11-20T09:37:34;13.05;;;2.40;;
35919;SDS011;36160;53.370;-6.196;2022-11-20T09:40:00;13.02;;;2.47;;
35919;SDS011;36160;53.370;-6.196;2022-11-20T09:55:50;8.68;;;1.80;;
35919;SDS011;36160;53.370;-6.196;2022-11-20T09:58:59;8.40;;;2.03;;
35919;SDS011;36160;53.370;-6.196;2022-11-20T10:01:16;16.70;;;1.80;;
35919;SDS011;36160;53.370;-6.196;2022-11-20T10:03:46;13.23;;;2.30;;
35919;SDS011;36160;53.370;-6.196;2022-11-20T10:06:20;10.32;;;2.60;;
35919;SDS011;36160;53.370;-6.196;2022-11-20T10:11:49;15.55;;;2.33;;
35919;SDS011;36160;53.370;-6.196;2022-11-20T10:17:21;7.32;;;2.00;;
35919;SDS011;36160;53.370;-6.196;2022-11-20T10:22:35;7.68;;;1.70;;
35919;SDS011;36160;53.370;-6.196;2022-11-20T10:25:18;11.25;;;1.95;;
35919;SDS011;36160;53.370;-6.196;2022-11-20T10:30:40;8.65;;;1.88;;
35919;SDS011;36160;53.370;-6.196;2022-11-20T10:38:10;11.07;;;2.35;;
35919;SDS011;36160;53.370;-6.196;2022-11-20T10:40:59;14.63;;;2.30;;
35919;SDS011;36160;53.370;-6.196;2022-11-20T10:43:46;7.85;;;1.83;;
35919;SDS011;36160;53.370;-6.196;2022-11-20T10:46:17;11.88;;;2.33;;
35919;SDS011;36160;53.370;-6.196;2022-11-20T10:48:47;9.15;;;2.03;;
35919;SDS011;36160;53.370;-6.196;2022-11-20T10:51:30;8.70;;;1.88;;
35919;SDS011;36160;53.370;-6.196;2022-11-20T10:57:00;3.45;;;1.83;;
35919;SDS011;36160;53.370;-6.196;2022-11-20T11:02:22;9.48;;;1.70;;
35919;SDS011;36160;53.370;-6.196;2022-11-20T11:04:50;12.50;;;1.58;;
35919;SDS011;36160;53.370;-6.196;2022-11-20T11:07:27;6.60;;;1.38;;
35919;SDS011;36160;53.370;-6.196;2022-11-20T11:10:12;4.18;;;1.10;;
35919;SDS011;36160;53.370;-6.196;2022-11-20T11:12:43;4.13;;;1.63;;
35919;SDS011;36160;53.370;-6.196;2022-11-20T11:15:12;4.75;;;1.40;;
35919;SDS011;36160;53.370;-6.196;2022-11-20T11:17:49;5.20;;;1.13;;
35919;SDS011;36160;53.370;-6.196;2022-11-20T11:20:19;3.42;;;1.30;;
35919;SDS011;36160;53.370;-6.196;2022-11-20T11:22:48;3.70;;;1.40;;
35919;SDS011;36160;53.370;-6.196;2022-11-20T11:25:32;2.33;;;1.27;;
35919;SDS011;36160;53.370;-6.196;2022-11-20T11:30:40;4.13;;;1.50;;
35919;SDS011;36160;53.370;-6.196;2022-11-20T11:33:20;1.80;;;1.23;;
35919;SDS011;36160;53.370;-6.196;2022-11-20T11:35:49;2.15;;;1.00;;
35919;SDS011;36160;53.370;-6.196;2022-11-20T11:38:43;6.53;;;1.20;;
35919;SDS011;36160;53.370;-6.196;2022-11-20T11:41:24;3.53;;;1.10;;
35919;SDS011;36160;53.370;-6.196;2022-11-20T11:43:57;4.90;;;2.15;;
35919;SDS011;36160;53.370;-6.196;2022-11-20T11:46:44;2.53;;;0.80;;
35919;SDS011;36160;53.370;-6.196;2022-11-20T11:49:18;1.42;;;1.10;;
35919;SDS011;36160;53.370;-6.196;2022-11-20T11:51:47;4.32;;;1.35;;
35919;SDS011;36160;53.370;-6.196;2022-11-20T11:54:35;5.75;;;1.42;;
35919;SDS011;36160;53.370;-6.196;2022-11-20T12:05:24;1.98;;;1.15;;
35919;SDS011;36160;53.370;-6.196;2022-11-20T12:08:11;2.95;;;1.20;;
35919;SDS011;36160;53.370;-6.196;2022-11-20T12:13:47;4.25;;;1.30;;
35919;SDS011;36160;53.370;-6.196;2022-11-20T12:16:27;2.08;;;1.00;;
35919;SDS011;36160;53.370;-6.196;2022-11-20T12:18:55;6.13;;;1.40;;
35919;SDS011;36160;53.370;-6.196;2022-11-20T12:21:35;2.85;;;1.38;;
35919;SDS011;36160;53.370;-6.196;2022-11-20T12:24:06;3.45;;;1.15;;
35919;SDS011;36160;53.370;-6.196;2022-11-20T12:52:06;1.90;;;1.10;;
35919;SDS011;36160;53.370;-6.196;2022-11-20T12:58:01;3.92;;;1.50;;
35919;SDS011;36160;53.370;-6.196;2022-11-20T13:00:38;6.13;;;1.65;;
35919;SDS011;36160;53.370;-6.196;2022-11-20T13:03:31;2.78;;;1.50;;
35919;SDS011;36160;53.370;-6.196;2022-11-20T13:08:52;7.20;;;1.55;;
35919;SDS011;36160;53.370;-6.196;2022-11-20T13:16:26;2.92;;;1.52;;
35919;SDS011;36160;53.370;-6.196;2022-11-20T13:19:09;7.57;;;1.35;;
35919;SDS011;36160;53.370;-6.196;2022-11-20T13:21:48;3.25;;;1.38;;
35919;SDS011;36160;53.370;-6.196;2022-11-20T13:29:34;6.15;;;1.45;;
35919;SDS011;36160;53.370;-6.196;2022-11-20T13:34:59;5.50;;;1.27;;
35919;SDS011;36160;53.370;-6.196;2022-11-20T13:42:39;6.93;;;1.65;;
35919;SDS011;36160;53.370;-6.196;2022-11-20T13:45:26;3.92;;;1.55;;
35919;SDS011;36160;53.370;-6.196;2022-11-20T13:47:56;8.82;;;1.88;;
35919;SDS011;36160;53.370;-6.196;2022-11-20T14:03:25;6.22;;;2.10;;
35919;SDS011;36160;53.370;-6.196;2022-11-20T14:05:56;8.95;;;3.55;;
35919;SDS011;36160;53.370;-6.196;2022-11-20T14:08:41;8.63;;;1.60;;
35919;SDS011;36160;53.370;-6.196;2022-11-20T14:11:14;5.30;;;1.63;;
35919;SDS011;36160;53.370;-6.196;2022-11-20T14:13:58;5.30;;;1.80;;
35919;SDS011;36160;53.370;-6.196;2022-11-20T14:16:31;9.98;;;2.10;;
35919;SDS011;36160;53.370;-6.196;2022-11-20T14:21:52;7.50;;;1.90;;
35919;SDS011;36160;53.370;-6.196;2022-11-20T14:24:30;9.95;;;4.28;;
35919;SDS011;36160;53.370;-6.196;2022-11-20T14:26:56;15.05;;;2.97;;
35919;SDS011;36160;53.370;-6.196;2022-11-20T14:29:23;8.90;;;1.95;;
35919;SDS011;36160;53.370;-6.196;2022-11-20T14:31:54;4.82;;;1.88;;
35919;SDS011;36160;53.370;-6.196;2022-11-20T14:34:22;7.78;;;2.13;;
35919;SDS011;36160;53.370;-6.196;2022-11-20T14:36:55;8.10;;;2.72;;
35919;SDS011;36160;53.370;-6.196;2022-11-20T14:39:25;28.40;;;4.18;;
35919;SDS011;36160;53.370;-6.196;2022-11-20T14:42:03;13.15;;;3.20;;
35919;SDS011;36160;53.370;-6.196;2022-11-20T14:44:39;7.28;;;3.38;;
35919;SDS011;36160;53.370;-6.196;2022-11-20T14:47:05;6.60;;;2.90;;
35919;SDS011;36160;53.370;-6.196;2022-11-20T14:49:31;7.53;;;2.50;;
35919;SDS011;36160;53.370;-6.196;2022-11-20T14:52:01;7.88;;;2.28;;
35919;SDS011;36160;53.370;-6.196;2022-11-20T14:54:42;6.70;;;1.58;;
35919;SDS011;36160;53.370;-6.196;2022-11-20T14:59:50;8.30;;;2.05;;
35919;SDS011;36160;53.370;-6.196;2022-11-20T15:02:16;11.52;;;2.22;;
35919;SDS011;36160;53.370;-6.196;2022-11-20T15:04:57;7.30;;;2.83;;
35919;SDS011;36160;53.370;-6.196;2022-11-20T15:07:25;7.05;;;2.10;;
35919;SDS011;36160;53.370;-6.196;2022-11-20T15:10:06;9.95;;;2.50;;
35919;SDS011;36160;53.370;-6.196;2022-11-20T15:12:35;8.95;;;2.40;;
35919;SDS011;36160;53.370;-6.196;2022-11-20T15:15:03;10.82;;;2.40;;
35919;SDS011;36160;53.370;-6.196;2022-11-20T15:17:31;6.45;;;2.45;;
35919;SDS011;36160;53.370;-6.196;2022-11-20T15:20:08;7.85;;;2.72;;
35919;SDS011;36160;53.370;-6.196;2022-11-20T15:22:38;9.02;;;4.10;;
35919;SDS011;36160;53.370;-6.196;2022-11-20T15:25:13;9.50;;;3.13;;
35919;SDS011;36160;53.370;-6.196;2022-11-20T15:27:41;13.32;;;5.57;;
35919;SDS011;36160;53.370;-6.196;2022-11-20T15:30:18;9.85;;;2.65;;
35919;SDS011;36160;53.370;-6.196;2022-11-20T15:32:45;4.95;;;2.25;;
35919;SDS011;36160;53.370;-6.196;2022-11-20T15:35:12;5.53;;;1.95;;
35919;SDS011;36160;53.370;-6.196;2022-11-20T15:37:38;8.63;;;2.00;;
35919;SDS011;36160;53.370;-6.196;2022-11-20T15:40:04;11.77;;;3.30;;
35919;SDS011;36160;53.370;-6.196;2022-11-20T15:42:32;7.25;;;2.60;;
35919;SDS011;36160;53.370;-6.196;2022-11-20T15:44:58;8.32;;;2.40;;
35919;SDS011;36160;53.370;-6.196;2022-11-20T15:47:27;16.60;;;6.07;;
35919;SDS011;36160;53.370;-6.196;2022-11-20T15:49:58;13.32;;;5.72;;
35919;SDS011;36160;53.370;-6.196;2022-11-20T15:52:24;19.70;;;4.15;;
35919;SDS011;36160;53.370;-6.196;2022-11-20T15:54:49;10.73;;;3.03;;
35919;SDS011;36160;53.370;-6.196;2022-11-20T15:57:15;10.93;;;2.95;;
35919;SDS011;36160;53.370;-6.196;2022-11-20T15:59:41;6.00;;;1.85;;
35919;SDS011;36160;53.370;-6.196;2022-11-20T16:02:10;5.55;;;2.67;;
35919;SDS011;36160;53.370;-6.196;2022-11-20T16:04:36;10.13;;;3.30;;
35919;SDS011;36160;53.370;-6.196;2022-11-20T16:07:02;13.45;;;4.45;;
35919;SDS011;36160;53.370;-6.196;2022-11-20T16:09:28;9.40;;;3.65;;
35919;SDS011;36160;53.370;-6.196;2022-11-20T16:11:54;10.93;;;3.58;;
35919;SDS011;36160;53.370;-6.196;2022-11-20T16:14:19;9.82;;;3.67;;
35919;SDS011;36160;53.370;-6.196;2022-11-20T16:17:03;12.18;;;3.80;;
35919;SDS011;36160;53.370;-6.196;2022-11-20T16:19:29;4.95;;;2.53;;
35919;SDS011;36160;53.370;-6.196;2022-11-20T16:21:56;11.65;;;5.40;;
35919;SDS011;36160;53.370;-6.196;2022-11-20T16:24:22;11.07;;;3.97;;
35919;SDS011;36160;53.370;-6.196;2022-11-20T16:26:48;7.30;;;3.10;;
35919;SDS011;36160;53.370;-6.196;2022-11-20T16:29:14;12.32;;;4.53;;
35919;SDS011;36160;53.370;-6.196;2022-11-20T16:31:40;8.45;;;2.97;;
35919;SDS011;36160;53.370;-6.196;2022-11-20T16:34:06;11.07;;;3.70;;
35919;SDS011;36160;53.370;-6.196;2022-11-20T16:36:32;8.43;;;4.00;;
35919;SDS011;36160;53.370;-6.196;2022-11-20T16:38:59;10.27;;;4.97;;
35919;SDS011;36160;53.370;-6.196;2022-11-20T16:41:27;14.20;;;4.20;;
35919;SDS011;36160;53.370;-6.196;2022-11-20T16:43:55;15.20;;;4.55;;
35919;SDS011;36160;53.370;-6.196;2022-11-20T16:46:23;10.45;;;4.20;;
35919;SDS011;36160;53.370;-6.196;2022-11-20T16:48:54;13.48;;;4.60;;